createdAt,value
2018-08-10T00:02:05.055Z,18.35
2018-08-10T00:04:35.336Z,18.44
2018-08-10T00:07:05.270Z,18.37
2018-08-10T00:09:35.237Z,18.38
2018-08-10T00:12:05.236Z,18.48
2018-08-10T00:14:35.492Z,18.36
2018-08-10T00:17:05.372Z,18.37
2018-08-10T00:19:35.263Z,18.20
2018-08-10T00:22:05.315Z,18.16
2018-08-10T00:24:35.350Z,18.12
2018-08-10T00:27:05.566Z,18.08
2018-08-10T00:29:35.746Z,18.02
2018-08-10T00:32:05.731Z,18.03
2018-08-10T00:34:35.648Z,18.02
2018-08-10T00:37:06.264Z,17.94
2018-08-10T00:43:11.700Z,17.79
2018-08-10T00:45:41.692Z,17.77
2018-08-10T00:48:11.640Z,17.78
2018-08-10T00:50:41.560Z,17.74
2018-08-10T00:53:11.376Z,17.74
2018-08-10T00:55:41.793Z,17.80
2018-08-10T00:58:11.718Z,17.85
2018-08-10T01:00:41.730Z,17.81
2018-08-10T01:03:11.672Z,17.78
2018-08-10T01:05:41.580Z,17.77
2018-08-10T01:08:11.490Z,17.69
2018-08-10T01:10:41.377Z,17.77
2018-08-10T01:13:11.289Z,17.72
2018-08-10T01:15:41.326Z,17.71
2018-08-10T01:18:11.626Z,17.60
2018-08-10T01:20:41.523Z,17.66
2018-08-10T01:23:11.642Z,17.73
2018-08-10T01:25:41.550Z,17.72
2018-08-10T01:28:11.497Z,17.80
2018-08-10T01:30:41.588Z,17.79
2018-08-10T01:33:11.508Z,17.74
2018-08-10T01:35:41.434Z,17.61
2018-08-10T01:38:11.388Z,17.56
2018-08-10T01:40:41.285Z,17.39
2018-08-10T01:43:11.235Z,17.46
2018-08-10T01:45:41.452Z,17.37
2018-08-10T01:48:11.684Z,17.35
2018-08-10T01:50:41.543Z,17.28
2018-08-10T01:53:11.585Z,17.26
2018-08-10T01:55:41.493Z,17.12
2018-08-10T01:58:12.279Z,17.15
2018-08-10T02:00:42.171Z,17.11
2018-08-10T02:03:12.510Z,17.08
2018-08-10T02:05:42.352Z,17.00
2018-08-10T02:08:12.292Z,17.04
2018-08-10T02:10:42.335Z,17.06
2018-08-10T02:13:12.173Z,17.17
2018-08-10T02:15:41.987Z,17.20
2018-08-10T02:18:12.197Z,17.18
2018-08-10T02:20:42.203Z,17.21
2018-08-10T02:23:12.097Z,17.15
2018-08-10T02:25:42.293Z,17.20
2018-08-10T02:28:12.173Z,17.25
2018-08-10T02:30:43.219Z,17.12
2018-08-10T02:33:13.063Z,17.25
2018-08-10T02:35:42.973Z,17.31
2018-08-10T02:38:13.173Z,17.27
2018-08-10T02:40:43.231Z,17.28
2018-08-10T02:43:13.607Z,17.15
2018-08-10T02:45:43.473Z,17.10
2018-08-10T02:48:13.735Z,17.00
2018-08-10T02:50:43.715Z,16.83
2018-08-10T02:53:13.828Z,16.75
2018-08-10T02:55:44.175Z,16.76
2018-08-10T02:58:14.095Z,16.82
2018-08-10T03:00:44.134Z,16.82
2018-08-10T03:03:14.105Z,16.76
2018-08-10T03:05:45.065Z,16.71
2018-08-10T03:08:14.977Z,16.65
2018-08-10T03:10:45.193Z,16.61
2018-08-10T03:13:15.441Z,16.57
2018-08-10T03:15:45.636Z,16.53
2018-08-10T03:18:15.824Z,16.64
2018-08-10T03:20:45.721Z,16.68
2018-08-10T03:23:15.623Z,16.54
2018-08-10T03:25:45.600Z,16.47
2018-08-10T03:28:15.426Z,16.46
2018-08-10T03:30:45.571Z,16.33
2018-08-10T03:33:15.494Z,16.24
2018-08-10T03:35:45.440Z,16.37
2018-08-10T03:38:15.322Z,16.43
2018-08-10T03:40:45.244Z,16.51
2018-08-10T03:43:15.659Z,16.53
2018-08-10T03:45:45.522Z,16.55
2018-08-10T03:48:15.444Z,16.49
2018-08-10T03:50:45.722Z,16.49
2018-08-10T03:53:15.991Z,16.53
2018-08-10T03:56:39.849Z,16.56
2018-08-10T03:59:10.192Z,16.51
2018-08-10T04:01:40.453Z,16.45
2018-08-10T04:04:10.394Z,16.46
2018-08-10T04:06:40.535Z,16.48
2018-08-10T04:09:12.083Z,16.38
2018-08-10T04:11:42.968Z,16.40
2018-08-10T04:14:13.196Z,16.42
2018-08-10T04:27:31.227Z,16.27
2018-08-10T04:30:01.151Z,16.27
2018-08-10T04:32:31.229Z,16.18
2018-08-10T04:35:01.033Z,16.23
2018-08-10T04:37:31.067Z,16.28
2018-08-10T04:40:41.205Z,16.37
2018-08-10T04:43:11.087Z,16.47
2018-08-10T04:45:40.882Z,16.40
2018-08-10T04:48:10.885Z,16.50
2018-08-10T04:50:40.869Z,16.44
2018-08-10T04:53:10.687Z,16.46
2018-08-10T04:55:40.613Z,16.36
2018-08-10T04:58:10.895Z,16.45
2018-08-10T05:00:41.144Z,16.34
2018-08-10T05:03:41.411Z,16.15
2018-08-10T05:06:11.467Z,16.07
2018-08-10T05:08:41.499Z,16.13
2018-08-10T05:11:11.383Z,16.11
2018-08-10T05:13:41.270Z,16.09
2018-08-10T05:16:11.319Z,16.11
2018-08-10T05:18:41.331Z,16.08
2018-08-10T05:21:11.325Z,15.96
2018-08-10T05:23:41.775Z,15.87
2018-08-10T05:26:11.629Z,15.95
2018-08-10T05:28:41.548Z,15.90
2018-08-10T05:31:11.841Z,15.86
2018-08-10T05:33:41.823Z,16.09
2018-08-10T05:36:11.665Z,16.17
2018-08-10T05:38:41.566Z,16.21
2018-08-10T05:41:11.905Z,16.27
2018-08-10T05:43:42.149Z,16.42
2018-08-10T05:46:45.918Z,16.45
2018-08-10T05:49:16.328Z,16.48
2018-08-10T05:51:46.202Z,16.55
2018-08-10T05:54:16.376Z,16.58
2018-08-10T05:56:46.183Z,16.59
2018-08-10T05:59:16.046Z,16.57
2018-08-10T06:01:45.882Z,16.52
2018-08-10T06:04:15.645Z,16.56
2018-08-10T06:06:45.836Z,16.62
2018-08-10T06:09:16.274Z,16.74
2018-08-10T06:11:46.116Z,16.92
2018-08-10T06:14:16.087Z,17.04
2018-08-10T06:16:45.912Z,17.10
2018-08-10T06:19:15.824Z,16.88
2018-08-10T06:21:46.642Z,16.65
2018-08-10T06:24:16.668Z,16.88
2018-08-10T06:26:46.556Z,17.06
2018-08-10T06:29:16.374Z,17.17
2018-08-10T06:31:46.198Z,17.31
2018-08-10T06:41:27.817Z,17.50
2018-08-10T06:43:57.769Z,17.54
2018-08-10T06:46:27.592Z,17.55
2018-08-10T06:48:57.562Z,17.71
2018-08-10T06:51:27.394Z,17.96
2018-08-10T06:53:57.386Z,18.22
2018-08-10T06:56:27.202Z,18.24
2018-08-10T06:58:57.082Z,18.18
2018-08-10T07:01:26.988Z,18.32
2018-08-10T07:03:57.039Z,18.41
2018-08-10T07:10:43.378Z,18.55
2018-08-10T07:13:13.355Z,18.64
2018-08-10T07:15:43.341Z,18.74
2018-08-10T07:18:13.406Z,18.86
2018-08-10T07:20:43.280Z,18.67
2018-08-10T07:23:13.520Z,18.68
2018-08-10T07:25:43.392Z,18.70
2018-08-10T07:28:13.258Z,18.74
2018-08-10T07:30:43.098Z,18.78
2018-08-10T07:33:12.932Z,18.71
2018-08-10T07:35:42.826Z,18.64
2018-08-10T07:38:12.658Z,18.50
2018-08-10T07:40:42.546Z,18.70
2018-08-10T07:43:12.444Z,18.83
2018-08-10T07:45:42.452Z,19.00
2018-08-10T07:48:12.265Z,19.36
2018-08-10T07:50:42.130Z,19.56
2018-08-10T07:53:12.359Z,20.24
2018-08-10T07:55:42.839Z,20.82
2018-08-10T07:58:13.232Z,20.85
2018-08-10T08:00:44.185Z,21.16
2018-08-10T08:03:14.635Z,21.42
2018-08-10T08:05:45.178Z,21.76
2018-08-10T08:12:40.396Z,21.67
2018-08-10T08:15:10.850Z,21.94
2018-08-10T08:17:41.785Z,21.85
2018-08-10T08:20:12.562Z,22.14
2018-08-10T08:22:43.114Z,22.06
2018-08-10T08:25:13.587Z,22.28
2018-08-10T08:27:44.110Z,22.02
2018-08-10T08:30:14.626Z,21.92
2018-08-10T08:32:45.499Z,21.84
2018-08-10T08:35:16.572Z,22.26
2018-08-10T08:37:47.001Z,22.48
2018-08-10T08:40:25.501Z,21.70
2018-08-10T08:42:55.919Z,21.54
2018-08-10T08:45:51.121Z,21.74
2018-08-10T08:48:22.749Z,21.92
2018-08-10T08:50:55.745Z,22.30
2018-08-10T08:53:26.273Z,22.55
2018-08-10T08:56:04.787Z,22.45
2018-08-10T08:58:35.917Z,22.75
2018-08-10T09:01:07.954Z,22.39
2018-08-10T09:04:59.513Z,22.39
2018-08-10T09:07:30.568Z,22.91
2018-08-10T09:10:02.258Z,23.24
2018-08-10T09:12:32.827Z,23.55
2018-08-10T09:15:05.211Z,23.83
2018-08-10T09:17:35.693Z,23.34
2018-08-10T09:23:42.873Z,23.81
2018-08-10T09:26:13.597Z,23.57
2018-08-10T09:28:44.292Z,23.91
2018-08-10T09:31:14.759Z,24.07
2018-08-10T09:33:45.271Z,23.78
2018-08-10T09:36:15.730Z,23.67
2018-08-10T09:38:46.158Z,23.63
2018-08-10T09:41:17.054Z,23.73
2018-08-10T09:43:47.483Z,24.29
2018-08-10T09:46:18.016Z,24.17
2018-08-10T09:48:48.768Z,24.02
2018-08-10T09:51:19.467Z,24.06
2018-08-10T09:53:49.908Z,24.13
2018-08-10T09:56:20.376Z,24.59
2018-08-10T09:58:51.373Z,24.33
2018-08-10T10:01:24.556Z,23.97
2018-08-10T10:03:55.826Z,23.97
2018-08-10T10:06:26.309Z,24.11
2018-08-10T10:08:57.307Z,24.04
2018-08-10T10:11:27.999Z,23.85
2018-08-10T10:13:58.773Z,23.75
2018-08-10T10:16:29.518Z,23.38
2018-08-10T10:19:00.602Z,22.78
2018-08-10T10:21:30.999Z,22.79
2018-08-10T10:24:01.605Z,23.37
2018-08-10T10:26:31.979Z,23.46
2018-08-10T10:29:02.331Z,23.54
2018-08-10T10:31:32.731Z,23.30
2018-08-10T10:34:03.537Z,22.77
2018-08-10T10:36:33.967Z,23.26
2018-08-10T10:39:06.745Z,23.84
2018-08-10T10:41:37.314Z,23.58
2018-08-10T10:44:08.818Z,23.63
2018-08-10T10:46:39.267Z,23.70
2018-08-10T10:49:10.637Z,23.65
2018-08-10T10:51:41.300Z,23.87
2018-08-10T10:54:11.815Z,23.73
2018-08-10T10:56:42.246Z,24.07
2018-08-10T10:59:12.929Z,24.25
2018-08-10T11:01:43.360Z,24.98
2018-08-10T11:04:13.885Z,25.23
2018-08-10T11:10:20.890Z,25.03
2018-08-10T11:12:51.599Z,24.72
2018-08-10T11:15:22.036Z,24.20
2018-08-10T11:17:52.477Z,24.22
2018-08-10T11:20:22.995Z,24.22
2018-08-10T11:22:53.466Z,24.09
2018-08-10T11:25:24.045Z,23.88
2018-08-10T11:27:54.455Z,24.42
2018-08-10T11:30:25.356Z,24.29
2018-08-10T11:32:56.347Z,24.80
2018-08-10T11:35:27.128Z,24.35
2018-08-10T11:37:57.754Z,23.35
2018-08-10T11:40:28.279Z,23.65
2018-08-10T11:42:58.922Z,23.37
2018-08-10T11:45:29.350Z,24.16
2018-08-10T11:47:59.767Z,23.78
2018-08-10T11:50:30.182Z,24.14
2018-08-10T11:53:00.567Z,23.23
2018-08-10T11:55:31.480Z,22.56
2018-08-10T11:58:02.040Z,22.57
2018-08-10T12:00:32.521Z,22.47
2018-08-10T12:03:02.993Z,22.84
2018-08-10T12:05:33.471Z,23.02
2018-08-10T12:08:03.840Z,23.52
2018-08-10T12:10:34.309Z,24.04
2018-08-10T12:13:04.755Z,24.13
2018-08-10T12:15:35.168Z,24.19
2018-08-10T12:18:05.763Z,24.23
2018-08-10T12:20:36.237Z,24.14
2018-08-10T12:23:06.658Z,24.39
2018-08-10T12:25:37.131Z,24.28
2018-08-10T12:28:07.741Z,24.34
2018-08-10T12:30:38.240Z,24.56
2018-08-10T12:33:08.714Z,24.71
2018-08-10T12:35:39.477Z,24.85
2018-08-10T12:38:09.852Z,24.97
2018-08-10T12:40:40.531Z,25.19
2018-08-10T12:43:10.859Z,25.15
2018-08-10T12:45:43.223Z,24.82
2018-08-10T12:48:13.745Z,24.48
2018-08-10T12:50:44.427Z,24.26
2018-08-10T12:53:15.396Z,24.34
2018-08-10T12:55:45.745Z,24.00
2018-08-10T12:58:16.203Z,24.00
2018-08-10T13:00:47.132Z,24.12
2018-08-10T13:03:18.091Z,24.43
2018-08-10T13:05:48.642Z,24.65
2018-08-10T13:08:19.356Z,24.71
2018-08-10T13:10:50.604Z,24.75
2018-08-10T13:13:21.092Z,24.79
2018-08-10T13:15:51.605Z,24.76
2018-08-10T13:18:22.163Z,24.78
2018-08-10T13:20:53.162Z,24.89
2018-08-10T13:23:24.665Z,24.89
2018-08-10T13:25:55.132Z,25.39
2018-08-10T13:32:02.118Z,25.51
2018-08-10T13:34:32.580Z,25.72
2018-08-10T13:37:03.466Z,25.51
2018-08-10T13:39:33.892Z,25.12
2018-08-10T13:42:04.452Z,24.76
2018-08-10T13:45:39.118Z,24.47
2018-08-10T13:48:09.606Z,24.50
2018-08-10T13:50:40.122Z,24.55
2018-08-10T13:53:10.715Z,24.60
2018-08-10T13:55:41.354Z,24.62
2018-08-10T13:58:11.751Z,24.91
2018-08-10T14:00:42.119Z,25.20
2018-08-10T14:03:13.259Z,25.54
2018-08-10T14:05:44.265Z,25.54
2018-08-10T14:08:14.978Z,25.35
2018-08-10T14:10:46.048Z,25.93
2018-08-10T14:13:16.522Z,26.19
2018-08-10T14:15:46.999Z,26.32
2018-08-10T14:18:17.716Z,26.32
2018-08-10T14:20:48.597Z,26.70
2018-08-10T14:23:19.774Z,26.55
2018-08-10T14:25:50.204Z,26.60
2018-08-10T14:28:20.718Z,26.39
2018-08-10T14:30:51.846Z,26.24
2018-08-10T14:33:22.641Z,26.24
2018-08-10T14:35:53.358Z,26.36
2018-08-10T14:38:23.833Z,26.18
2018-08-10T14:40:54.421Z,25.50
2018-08-10T14:47:00.815Z,26.03
2018-08-10T14:49:31.329Z,25.96
2018-08-10T14:52:02.635Z,25.91
2018-08-10T14:54:33.253Z,26.17
2018-08-10T14:57:03.749Z,26.39
2018-08-10T15:03:10.812Z,25.52
2018-08-10T15:05:41.312Z,25.21
2018-08-10T15:08:12.457Z,25.17
2018-08-10T15:10:43.334Z,25.02
2018-08-10T15:13:14.351Z,24.80
2018-08-10T15:15:47.897Z,25.01
2018-08-10T15:18:18.581Z,25.07
2018-08-10T15:20:50.617Z,25.20
2018-08-10T15:23:21.279Z,25.21
2018-08-10T15:25:51.759Z,25.21
2018-08-10T15:28:22.339Z,25.10
2018-08-10T15:30:53.001Z,25.01
2018-08-10T15:33:23.581Z,24.85
2018-08-10T15:35:54.210Z,24.73
2018-08-10T15:38:24.707Z,24.94
2018-08-10T15:40:56.303Z,25.02
2018-08-10T15:43:26.862Z,24.69
2018-08-10T15:45:58.131Z,24.80
2018-08-10T15:48:28.597Z,24.93
2018-08-10T15:50:59.127Z,24.99
2018-08-10T15:53:30.131Z,25.09
2018-08-10T15:56:00.650Z,25.05
2018-08-10T15:58:31.997Z,25.20
2018-08-10T16:01:02.573Z,25.14
2018-08-10T16:03:33.243Z,25.36
2018-08-10T16:06:03.911Z,25.23
2018-08-10T16:08:34.653Z,25.01
2018-08-10T16:11:05.568Z,24.62
2018-08-10T16:13:36.377Z,24.54
2018-08-10T16:16:07.148Z,24.61
2018-08-10T16:18:37.807Z,24.50
2018-08-10T16:21:08.700Z,24.74
2018-08-10T16:23:39.739Z,24.74
2018-08-10T16:26:10.923Z,24.66
2018-08-10T16:28:41.527Z,24.41
2018-08-10T16:31:12.193Z,24.19
2018-08-10T16:33:43.027Z,24.26
2018-08-10T16:36:14.604Z,24.20
2018-08-10T16:38:45.190Z,24.15
2018-08-10T16:41:15.804Z,24.24
2018-08-10T16:43:46.864Z,24.24
2018-08-10T16:46:21.086Z,24.33
2018-08-10T16:48:51.913Z,24.51
2018-08-10T16:51:22.372Z,24.56
2018-08-10T16:53:52.863Z,24.58
2018-08-10T16:56:23.506Z,24.39
2018-08-10T16:58:54.236Z,24.41
2018-08-10T17:01:25.186Z,24.06
2018-08-10T17:03:56.302Z,24.10
2018-08-10T17:06:26.746Z,24.03
2018-08-10T17:09:41.118Z,24.07
2018-08-10T17:12:11.588Z,24.20
2018-08-10T17:14:42.067Z,24.30
2018-08-10T17:17:12.693Z,24.35
2018-08-10T17:19:43.186Z,24.20
2018-08-10T17:22:14.160Z,24.10
2018-08-10T17:24:44.954Z,24.11
2018-08-10T17:27:15.490Z,24.08
2018-08-10T17:29:46.038Z,24.01
2018-08-10T17:32:16.756Z,23.93
2018-08-10T17:34:47.710Z,23.84
2018-08-10T17:37:18.209Z,23.53
2018-08-10T17:39:48.634Z,23.34
2018-08-10T17:42:19.496Z,23.45
2018-08-10T17:44:49.995Z,23.47
2018-08-10T17:54:32.044Z,23.26
2018-08-10T17:57:02.742Z,23.28
2018-08-10T17:59:33.261Z,23.13
2018-08-10T18:02:03.799Z,23.16
2018-08-10T18:04:34.296Z,23.19
2018-08-10T18:07:05.084Z,23.02
2018-08-10T18:09:35.907Z,22.92
2018-08-10T18:12:06.332Z,23.02
2018-08-10T18:14:37.295Z,22.89
2018-08-10T18:17:08.633Z,22.87
2018-08-10T18:20:40.001Z,22.80
2018-08-10T18:23:10.603Z,22.60
2018-08-10T18:25:41.253Z,22.45
2018-08-10T18:28:11.750Z,22.27
2018-08-10T18:30:42.276Z,22.15
2018-08-10T18:33:12.884Z,22.07
2018-08-10T18:35:43.328Z,21.87
2018-08-10T18:38:13.998Z,21.64
2018-08-10T18:40:44.557Z,21.59
2018-08-10T18:43:15.590Z,21.60
2018-08-10T18:45:46.744Z,21.44
2018-08-10T18:48:17.430Z,21.43
2018-08-10T18:50:48.032Z,21.30
2018-08-10T18:53:18.554Z,21.20
2018-08-10T18:55:49.391Z,21.11
2018-08-10T18:58:20.023Z,21.12
2018-08-10T19:00:50.671Z,20.91
2018-08-10T19:03:21.118Z,20.93
2018-08-10T19:05:51.603Z,20.91
2018-08-10T19:08:22.174Z,20.84
2018-08-10T19:10:53.070Z,20.65
2018-08-10T19:13:23.596Z,20.57
2018-08-10T19:15:54.370Z,20.51
2018-08-10T19:18:24.940Z,20.46
2018-08-10T19:20:55.608Z,20.46
2018-08-10T19:23:26.404Z,20.47
2018-08-10T19:25:56.814Z,20.45
2018-08-10T19:28:27.258Z,20.41
2018-08-10T19:30:58.090Z,20.38
2018-08-10T19:33:28.630Z,20.26
2018-08-10T19:35:59.476Z,20.25
2018-08-10T19:38:30.312Z,20.20
2018-08-10T19:41:03.898Z,20.15
2018-08-10T19:43:35.634Z,20.01
2018-08-10T19:46:06.650Z,19.96
2018-08-10T19:48:38.196Z,19.91
2018-08-10T19:51:08.805Z,19.96
2018-08-10T19:53:39.556Z,19.86
2018-08-10T19:56:10.053Z,19.92
2018-08-10T19:58:40.738Z,19.95
2018-08-10T20:01:11.281Z,19.85
2018-08-10T20:03:41.728Z,19.96
2018-08-10T20:06:12.184Z,19.96
2018-08-10T20:08:42.684Z,19.96
2018-08-10T20:11:13.202Z,19.82
2018-08-10T20:13:44.032Z,19.79
2018-08-10T20:16:14.622Z,19.74
2018-08-10T20:18:45.540Z,19.74
2018-08-10T20:21:18.687Z,19.72
2018-08-10T20:23:49.175Z,19.72
2018-08-10T20:26:19.689Z,19.72
2018-08-10T20:28:50.212Z,19.66
2018-08-10T20:31:21.511Z,19.58
2018-08-10T20:33:52.053Z,19.57
2018-08-10T20:36:22.967Z,19.46
2018-08-10T20:38:53.467Z,19.39
2018-08-10T20:41:24.929Z,19.25
2018-08-10T20:43:56.401Z,19.07
2018-08-10T20:46:26.916Z,18.67
2018-08-10T20:48:56.925Z,18.56
2018-08-10T20:51:27.141Z,18.37
2018-08-10T20:53:57.038Z,18.44
2018-08-10T20:56:26.993Z,18.40
2018-08-10T20:58:56.949Z,18.50
2018-08-10T21:01:26.913Z,18.52
2018-08-10T21:03:56.916Z,18.57
2018-08-10T21:06:27.345Z,18.48
2018-08-10T21:08:57.746Z,18.61
2018-08-10T21:11:28.623Z,18.60
2018-08-10T21:13:58.708Z,18.56
2018-08-10T21:16:28.626Z,18.47
2018-08-10T21:18:58.641Z,18.46
2018-08-10T21:21:29.349Z,18.44
2018-08-10T21:23:59.719Z,18.48
2018-08-10T21:26:30.820Z,18.43
2018-08-10T21:32:38.177Z,18.42
2018-08-10T21:35:08.887Z,18.47
2018-08-10T21:37:38.879Z,18.45
2018-08-10T21:40:10.629Z,18.37
2018-08-10T21:42:42.159Z,18.37
2018-08-10T21:52:24.234Z,17.76
2018-08-10T21:54:54.139Z,17.78
2018-08-10T21:57:24.105Z,17.78
2018-08-10T21:59:54.312Z,17.62
2018-08-10T22:02:25.568Z,17.61
2018-08-10T22:04:56.547Z,17.62
2018-08-10T22:07:26.585Z,17.62
2018-08-10T22:09:56.639Z,17.69
2018-08-10T22:12:26.726Z,17.71
2018-08-10T22:15:02.602Z,17.81
2018-08-10T22:17:38.568Z,17.76
2018-08-10T22:20:08.583Z,17.86
2018-08-10T22:22:38.638Z,17.89
2018-08-10T22:25:08.640Z,17.88
2018-08-10T22:27:39.099Z,17.85
2018-08-10T22:30:09.247Z,17.84
2018-08-10T22:32:39.402Z,17.87
2018-08-10T22:35:09.607Z,17.83
2018-08-10T22:37:39.589Z,17.88
2018-08-10T22:40:10.016Z,17.92
2018-08-10T22:42:40.230Z,17.85
2018-08-10T22:45:10.205Z,17.85
2018-08-10T22:47:41.711Z,17.77
2018-08-10T22:50:12.274Z,17.73
2018-08-10T22:53:39.195Z,17.84
2018-08-10T22:56:09.561Z,17.81
2018-08-10T22:58:39.813Z,17.78
2018-08-10T23:01:09.736Z,17.79
2018-08-10T23:03:40.014Z,17.68
2018-08-10T23:06:09.954Z,17.73
2018-08-10T23:08:39.943Z,17.66
2018-08-10T23:11:09.963Z,17.63
2018-08-10T23:13:41.037Z,17.69
2018-08-10T23:16:11.508Z,17.60
2018-08-10T23:18:42.455Z,17.47
2018-08-10T23:21:12.655Z,17.29
2018-08-10T23:23:42.805Z,17.37
2018-08-10T23:26:13.301Z,17.34
2018-08-10T23:29:39.730Z,17.47
2018-08-10T23:32:09.696Z,17.35
2018-08-10T23:34:41.212Z,17.26
2018-08-10T23:37:11.562Z,17.13
2018-08-10T23:39:43.633Z,17.10
2018-08-10T23:42:13.683Z,17.08
2018-08-10T23:44:44.663Z,17.01
2018-08-10T23:47:14.969Z,16.90
2018-08-10T23:49:45.056Z,16.76
2018-08-10T23:52:16.765Z,16.88
2018-08-10T23:54:47.083Z,16.89
2018-08-10T23:57:18.385Z,16.83
2018-08-10T23:59:50.511Z,16.85
